createdAt,value
2023-04-10T00:02:03.577Z,100.00
2023-04-10T00:04:31.390Z,100.00
2023-04-10T00:06:58.953Z,100.00
2023-04-10T00:09:28.871Z,100.00
2023-04-10T00:11:56.555Z,100.00
2023-04-10T00:14:24.461Z,100.00
2023-04-10T00:16:52.190Z,100.00
2023-04-10T00:19:19.867Z,100.00
2023-04-10T00:21:47.380Z,100.00
2023-04-10T00:24:14.942Z,100.00
2023-04-10T00:26:43.876Z,100.00
2023-04-10T00:29:11.479Z,100.00
2023-04-10T00:31:39.049Z,100.00
2023-04-10T00:34:06.930Z,100.00
2023-04-10T00:36:35.013Z,100.00
2023-04-10T00:39:02.549Z,100.00
2023-04-10T00:41:30.668Z,100.00
2023-04-10T00:44:00.138Z,100.00
2023-04-10T00:46:28.748Z,100.00
2023-04-10T00:48:57.269Z,100.00
2023-04-10T00:51:24.870Z,100.00
2023-04-10T00:53:52.960Z,100.00
2023-04-10T00:56:21.405Z,100.00
2023-04-10T00:58:49.154Z,100.00
2023-04-10T01:01:18.988Z,100.00
2023-04-10T01:03:46.810Z,100.00
2023-04-10T01:06:24.414Z,100.00
2023-04-10T01:09:00.757Z,100.00
2023-04-10T01:11:38.224Z,100.00
2023-04-10T01:14:12.625Z,100.00
2023-04-10T01:16:49.622Z,100.00
2023-04-10T01:19:28.590Z,100.00
2023-04-10T01:21:57.308Z,100.00
2023-04-10T01:24:45.870Z,100.00
2023-04-10T01:27:36.190Z,100.00
2023-04-10T01:30:07.263Z,100.00
2023-04-10T01:32:37.454Z,100.00
2023-04-10T01:35:08.966Z,100.00
2023-04-10T01:37:39.732Z,100.00
2023-04-10T01:40:11.900Z,100.00
2023-04-10T01:42:44.923Z,100.00
2023-04-10T01:45:18.798Z,100.00
2023-04-10T01:47:49.459Z,100.00
2023-04-10T01:50:18.605Z,100.00
2023-04-10T01:52:47.926Z,100.00
2023-04-10T01:55:22.422Z,100.00
2023-04-10T01:57:55.871Z,100.00
2023-04-10T02:00:26.731Z,100.00
2023-04-10T02:02:54.715Z,100.00
2023-04-10T02:05:23.649Z,100.00
2023-04-10T02:07:58.553Z,100.00
2023-04-10T02:10:31.525Z,100.00
2023-04-10T02:13:02.061Z,100.00
2023-04-10T02:15:33.186Z,100.00
2023-04-10T02:18:01.787Z,100.00
2023-04-10T02:20:29.782Z,100.00
2023-04-10T02:22:59.789Z,100.00
2023-04-10T02:25:27.435Z,100.00
2023-04-10T02:27:54.951Z,100.00
2023-04-10T02:30:23.373Z,100.00
2023-04-10T02:32:52.588Z,100.00
2023-04-10T02:35:20.155Z,100.00
2023-04-10T02:37:47.690Z,100.00
2023-04-10T02:40:16.738Z,100.00
2023-04-10T02:42:53.163Z,100.00
2023-04-10T02:45:20.816Z,100.00
2023-04-10T02:47:48.742Z,100.00
2023-04-10T02:50:18.054Z,100.00
2023-04-10T02:52:47.189Z,100.00
2023-04-10T02:55:14.840Z,100.00
2023-04-10T02:57:43.462Z,100.00
2023-04-10T03:00:12.217Z,100.00
2023-04-10T03:03:02.187Z,100.00
2023-04-10T03:05:37.649Z,100.00
2023-04-10T03:08:05.609Z,100.00
2023-04-10T03:10:33.314Z,100.00
2023-04-10T03:13:00.994Z,100.00
2023-04-10T03:15:28.581Z,100.00
2023-04-10T03:17:58.688Z,100.00
2023-04-10T03:20:26.474Z,100.00
2023-04-10T03:22:55.593Z,100.00
2023-04-10T03:25:26.321Z,100.00
2023-04-10T03:27:54.097Z,100.00
2023-04-10T03:30:22.003Z,100.00
2023-04-10T03:32:50.041Z,100.00
2023-04-10T03:35:17.705Z,100.00
2023-04-10T03:37:45.370Z,100.00
2023-04-10T03:40:14.545Z,100.00
2023-04-10T03:42:42.140Z,100.00
2023-04-10T03:45:11.331Z,100.00
2023-04-10T03:47:38.926Z,100.00
2023-04-10T03:50:09.917Z,100.00
2023-04-10T03:52:46.190Z,100.00
2023-04-10T03:55:19.516Z,100.00
2023-04-10T03:57:48.585Z,100.00
2023-04-10T04:00:19.003Z,100.00
2023-04-10T04:02:50.624Z,100.00
2023-04-10T04:05:50.284Z,100.00
2023-04-10T04:08:28.327Z,100.00
2023-04-10T04:11:03.795Z,100.00
2023-04-10T04:13:57.177Z,100.00
2023-04-10T04:16:47.624Z,100.00
2023-04-10T04:19:28.437Z,100.00
2023-04-10T04:22:23.907Z,100.00
2023-04-10T04:25:11.594Z,100.00
2023-04-10T04:27:59.276Z,100.00
2023-04-10T04:30:45.492Z,100.00
2023-04-10T04:33:48.674Z,100.00
2023-04-10T04:36:31.157Z,100.00
2023-04-10T04:39:24.746Z,100.00
2023-04-10T04:42:12.691Z,100.00
2023-04-10T04:44:47.573Z,100.00
2023-04-10T04:47:28.469Z,100.00
2023-04-10T04:50:17.987Z,100.00
2023-04-10T04:53:14.499Z,100.00
2023-04-10T04:56:09.056Z,100.00
2023-04-10T04:58:49.026Z,100.00
2023-04-10T05:01:41.098Z,100.00
2023-04-10T05:04:08.814Z,100.00
2023-04-10T05:06:55.189Z,100.00
2023-04-10T05:09:53.636Z,100.00
2023-04-10T05:12:21.170Z,100.00
2023-04-10T05:15:18.119Z,100.00
2023-04-10T05:17:55.824Z,100.00
2023-04-10T05:20:40.877Z,100.00
2023-04-10T05:23:26.957Z,100.00
2023-04-10T05:26:17.442Z,100.00
2023-04-10T05:28:52.064Z,100.00
2023-04-10T05:31:40.123Z,100.00
2023-04-10T05:34:17.042Z,100.00
2023-04-10T05:37:08.845Z,100.00
2023-04-10T05:39:54.835Z,100.00
2023-04-10T05:42:28.485Z,100.00
2023-04-10T05:45:09.839Z,100.00
2023-04-10T05:47:46.426Z,100.00
2023-04-10T05:50:35.975Z,100.00
2023-04-10T05:53:31.134Z,100.00
2023-04-10T05:56:16.510Z,100.00
2023-04-10T05:59:02.606Z,100.00
2023-04-10T06:01:53.325Z,100.00
2023-04-10T06:04:22.250Z,100.00
2023-04-10T06:06:55.143Z,100.00
2023-04-10T06:09:22.711Z,100.00
2023-04-10T06:11:50.351Z,100.00
2023-04-10T06:14:21.649Z,100.00
2023-04-10T06:16:49.260Z,100.00
2023-04-10T06:19:17.244Z,100.00
2023-04-10T06:21:44.800Z,100.00
2023-04-10T06:24:15.697Z,100.00
2023-04-10T06:26:43.229Z,100.00
2023-04-10T06:29:11.349Z,100.00
2023-04-10T06:31:39.816Z,100.00
2023-04-10T06:34:07.360Z,100.00
2023-04-10T06:36:37.825Z,100.00
2023-04-10T06:39:07.636Z,100.00
2023-04-10T06:41:36.612Z,100.00
2023-04-10T06:44:16.014Z,100.00
2023-04-10T06:46:43.649Z,100.00
2023-04-10T06:49:11.222Z,100.00
2023-04-10T06:51:38.718Z,100.00
2023-04-10T06:54:06.263Z,99.51
2023-04-10T06:56:33.792Z,99.46
2023-04-10T06:59:03.158Z,97.65
2023-04-10T07:01:30.720Z,97.27
2023-04-10T07:03:58.348Z,96.35
2023-04-10T07:06:26.191Z,96.00
2023-04-10T07:08:53.898Z,96.33
2023-04-10T07:11:21.637Z,94.41
2023-04-10T07:13:53.305Z,93.34
2023-04-10T07:16:22.232Z,92.02
2023-04-10T07:18:49.783Z,91.51
2023-04-10T07:21:17.302Z,90.34
2023-04-10T07:23:44.841Z,88.54
2023-04-10T07:26:12.436Z,88.46
2023-04-10T07:28:39.971Z,88.06
2023-04-10T07:31:08.806Z,85.52
2023-04-10T07:33:37.998Z,86.25
2023-04-10T07:36:06.952Z,84.79
2023-04-10T07:38:34.579Z,83.71
2023-04-10T07:41:02.132Z,83.50
2023-04-10T07:43:29.679Z,83.69
2023-04-10T07:45:57.615Z,82.21
2023-04-10T07:48:25.213Z,82.02
2023-04-10T07:50:54.188Z,80.99
2023-04-10T07:53:21.782Z,80.16
2023-04-10T07:55:50.882Z,80.35
2023-04-10T07:58:18.451Z,79.58
2023-04-10T08:00:46.376Z,79.51
2023-04-10T08:03:14.014Z,77.96
2023-04-10T08:05:41.780Z,77.34
2023-04-10T08:08:10.841Z,77.49
2023-04-10T08:10:39.017Z,76.62
2023-04-10T08:13:06.740Z,76.21
2023-04-10T08:15:34.267Z,76.53
2023-04-10T08:18:01.989Z,75.61
2023-04-10T08:20:29.763Z,74.11
2023-04-10T08:23:01.012Z,74.15
2023-04-10T08:25:41.577Z,73.54
2023-04-10T08:28:09.148Z,73.20
2023-04-10T08:30:36.696Z,72.55
2023-04-10T08:33:04.488Z,71.94
2023-04-10T08:35:32.119Z,72.12
2023-04-10T08:38:12.645Z,71.98
2023-04-10T08:40:44.385Z,72.10
2023-04-10T08:43:12.007Z,71.19
2023-04-10T08:45:41.467Z,71.18
2023-04-10T08:48:11.428Z,71.15
2023-04-10T08:50:42.965Z,70.79
2023-04-10T08:53:13.008Z,71.07
2023-04-10T08:55:43.082Z,70.14
2023-04-10T08:58:13.489Z,68.55
2023-04-10T09:00:41.091Z,68.43
2023-04-10T09:03:11.892Z,68.65
2023-04-10T09:05:39.595Z,66.70
2023-04-10T09:08:09.088Z,66.15
2023-04-10T09:10:36.622Z,66.12
2023-04-10T09:13:05.582Z,66.41
2023-04-10T09:15:59.475Z,67.24
2023-04-10T09:18:43.042Z,64.13
2023-04-10T09:21:11.736Z,63.13
2023-04-10T09:23:39.300Z,63.90
2023-04-10T09:26:24.203Z,64.84
2023-04-10T09:29:01.748Z,63.21
2023-04-10T09:31:34.460Z,63.37
2023-04-10T09:34:09.848Z,63.91
2023-04-10T09:36:38.314Z,60.80
2023-04-10T09:39:06.733Z,60.29
2023-04-10T09:41:34.733Z,60.21
2023-04-10T09:44:11.351Z,59.66
2023-04-10T09:46:39.459Z,59.40
2023-04-10T09:49:07.543Z,58.00
2023-04-10T09:51:36.493Z,58.75
2023-04-10T09:54:05.023Z,58.67
2023-04-10T09:56:37.976Z,59.00
2023-04-10T09:59:07.658Z,57.00
2023-04-10T10:01:40.476Z,54.73
2023-04-10T10:04:09.149Z,55.95
2023-04-10T10:06:39.143Z,56.14
2023-04-10T10:09:06.901Z,54.75
2023-04-10T10:11:35.936Z,54.86
2023-04-10T10:14:06.147Z,52.23
2023-04-10T10:16:40.590Z,53.44
2023-04-10T10:19:13.814Z,53.32
2023-04-10T10:21:45.043Z,54.11
2023-04-10T10:24:14.139Z,48.37
2023-04-10T10:26:41.789Z,53.81
2023-04-10T10:29:13.251Z,53.85
2023-04-10T10:31:43.379Z,52.87
2023-04-10T10:34:11.274Z,50.32
2023-04-10T10:36:41.282Z,50.03
2023-04-10T10:39:26.084Z,48.09
2023-04-10T10:42:02.474Z,49.37
2023-04-10T10:44:38.031Z,49.78
2023-04-10T10:47:15.633Z,48.09
2023-04-10T10:49:57.022Z,48.62
2023-04-10T10:52:46.376Z,47.83
2023-04-10T10:55:31.490Z,47.67
2023-04-10T10:58:01.120Z,47.69
2023-04-10T11:01:18.994Z,46.82
2023-04-10T11:03:48.220Z,45.44
2023-04-10T11:06:19.287Z,45.27
2023-04-10T11:08:48.212Z,45.31
2023-04-10T11:11:17.947Z,45.87
2023-04-10T11:14:18.084Z,44.75
2023-04-10T11:16:48.290Z,45.28
2023-04-10T11:19:22.624Z,45.52
2023-04-10T11:22:08.940Z,43.78
2023-04-10T11:24:57.539Z,43.34
2023-04-10T11:27:46.166Z,43.82
2023-04-10T11:30:34.605Z,43.67
2023-04-10T11:33:03.760Z,44.41
2023-04-10T11:35:33.672Z,44.60
2023-04-10T11:38:14.823Z,43.74
2023-04-10T11:41:04.000Z,43.42
2023-04-10T11:43:33.633Z,42.93
2023-04-10T11:46:02.965Z,42.90
2023-04-10T11:48:31.202Z,43.29
2023-04-10T11:51:01.959Z,42.88
2023-04-10T11:53:29.978Z,42.10
2023-04-10T11:55:58.402Z,41.65
2023-04-10T11:58:27.505Z,41.75
2023-04-10T12:01:02.632Z,39.73
2023-04-10T12:03:40.675Z,39.91
2023-04-10T12:06:12.101Z,39.62
2023-04-10T12:08:41.186Z,38.48
2023-04-10T12:11:10.485Z,39.03
2023-04-10T12:13:39.069Z,38.77
2023-04-10T12:16:09.474Z,38.95
2023-04-10T12:18:37.742Z,38.61
2023-04-10T12:21:07.622Z,38.30
2023-04-10T12:23:38.872Z,38.83
2023-04-10T12:26:09.507Z,39.01
2023-04-10T12:28:38.157Z,39.06
2023-04-10T12:31:06.369Z,38.86
2023-04-10T12:33:34.179Z,38.96
2023-04-10T12:36:01.893Z,38.52
2023-04-10T12:38:41.213Z,40.08
2023-04-10T12:41:10.001Z,38.53
2023-04-10T12:43:38.868Z,38.73
2023-04-10T12:46:08.066Z,38.60
2023-04-10T12:48:36.056Z,41.05
2023-04-10T12:51:04.420Z,40.50
2023-04-10T12:53:32.790Z,40.03
2023-04-10T12:56:03.667Z,38.73
2023-04-10T12:58:31.996Z,39.11
2023-04-10T13:01:03.488Z,39.96
2023-04-10T13:03:31.835Z,39.95
2023-04-10T13:05:59.781Z,39.99
2023-04-10T13:08:27.340Z,40.33
2023-04-10T13:10:58.049Z,39.37
2023-04-10T13:13:27.069Z,40.57
2023-04-10T13:15:55.568Z,40.04
2023-04-10T13:18:23.212Z,39.67
2023-04-10T13:20:51.297Z,39.92
2023-04-10T13:23:18.984Z,39.20
2023-04-10T13:25:46.918Z,39.70
2023-04-10T13:28:15.847Z,39.44
2023-04-10T13:30:44.729Z,39.50
2023-04-10T13:33:12.363Z,40.46
2023-04-10T13:35:40.915Z,40.31
2023-04-10T13:38:09.282Z,40.22
2023-04-10T13:40:37.056Z,40.18
2023-04-10T13:43:06.248Z,39.93
2023-04-10T13:45:34.897Z,40.77
2023-04-10T13:48:04.199Z,39.79
2023-04-10T13:50:32.059Z,39.23
2023-04-10T13:52:59.609Z,39.26
2023-04-10T13:55:27.150Z,39.52
2023-04-10T13:57:54.726Z,39.59
2023-04-10T14:00:22.260Z,38.84
2023-04-10T14:02:49.898Z,39.83
2023-04-10T14:05:19.165Z,38.54
2023-04-10T14:07:46.648Z,38.98
2023-04-10T14:10:14.250Z,39.34
2023-04-10T14:12:41.732Z,39.50
2023-04-10T14:15:10.672Z,39.43
2023-04-10T14:17:38.245Z,39.79
2023-04-10T14:20:07.028Z,40.36
2023-04-10T14:22:35.939Z,40.48
2023-04-10T14:25:12.305Z,41.08
2023-04-10T14:27:40.953Z,41.37
2023-04-10T14:30:09.740Z,41.23
2023-04-10T14:32:37.407Z,41.17
2023-04-10T14:35:05.518Z,41.45
2023-04-10T14:37:33.383Z,42.10
2023-04-10T14:40:04.517Z,41.88
2023-04-10T14:42:32.224Z,41.84
2023-04-10T14:45:00.009Z,42.18
2023-04-10T14:47:27.753Z,41.84
2023-04-10T14:49:55.370Z,42.41
2023-04-10T14:52:23.167Z,42.32
2023-04-10T14:54:50.745Z,42.97
2023-04-10T14:57:19.626Z,42.42
2023-04-10T14:59:47.177Z,42.92
2023-04-10T15:02:15.332Z,42.75
2023-04-10T15:04:43.839Z,43.43
2023-04-10T15:07:11.419Z,43.86
2023-04-10T15:09:38.981Z,43.34
2023-04-10T15:12:06.832Z,43.46
2023-04-10T15:14:35.822Z,44.13
2023-04-10T15:17:03.412Z,43.56
2023-04-10T15:19:31.027Z,43.49
2023-04-10T15:21:58.573Z,43.97
2023-04-10T15:24:27.054Z,43.34
2023-04-10T15:26:56.209Z,42.70
2023-04-10T15:29:23.743Z,43.39
2023-04-10T15:31:52.725Z,42.74
2023-04-10T15:34:20.450Z,43.05
2023-04-10T15:36:48.240Z,42.90
2023-04-10T15:39:16.141Z,42.73
2023-04-10T15:41:43.858Z,42.61
2023-04-10T15:44:11.389Z,43.19
2023-04-10T15:46:39.031Z,43.40
2023-04-10T15:49:08.110Z,42.90
2023-04-10T15:51:35.846Z,43.27
2023-04-10T15:54:04.887Z,44.17
2023-04-10T15:56:33.657Z,44.64
2023-04-10T15:59:01.441Z,44.84
2023-04-10T16:01:29.182Z,45.19
2023-04-10T16:03:57.064Z,46.20
2023-04-10T16:06:27.636Z,46.01
2023-04-10T16:08:55.216Z,44.90
2023-04-10T16:11:22.872Z,44.97
2023-04-10T16:13:50.662Z,44.79
2023-04-10T16:16:19.094Z,44.91
2023-04-10T16:18:47.093Z,44.88
2023-04-10T16:21:15.180Z,45.30
2023-04-10T16:23:44.028Z,45.66
2023-04-10T16:26:11.542Z,46.03
2023-04-10T16:28:39.147Z,45.56
2023-04-10T16:31:07.329Z,45.18
2023-04-10T16:33:34.945Z,45.50
2023-04-10T16:36:04.612Z,45.81
2023-04-10T16:38:34.418Z,45.67
2023-04-10T16:41:04.378Z,46.25
2023-04-10T16:43:32.295Z,46.56
2023-04-10T16:46:00.846Z,47.04
2023-04-10T16:48:28.450Z,47.66
2023-04-10T16:50:56.045Z,48.34
2023-04-10T16:53:23.529Z,48.53
2023-04-10T16:55:57.810Z,49.10
2023-04-10T16:58:26.838Z,49.38
2023-04-10T17:00:54.539Z,49.77
2023-04-10T17:03:22.513Z,50.52
2023-04-10T17:05:50.010Z,49.95
2023-04-10T17:08:17.542Z,49.95
2023-04-10T17:10:45.088Z,50.30
2023-04-10T17:13:12.665Z,50.58
2023-04-10T17:15:41.527Z,50.62
2023-04-10T17:18:09.085Z,50.89
2023-04-10T17:20:37.024Z,51.23
2023-04-10T17:23:04.718Z,51.58
2023-04-10T17:25:32.277Z,51.12
2023-04-10T17:27:59.917Z,51.37
2023-04-10T17:30:27.586Z,51.21
2023-04-10T17:32:56.507Z,51.27
2023-04-10T17:35:25.277Z,51.79
2023-04-10T17:37:53.022Z,51.79
2023-04-10T17:40:20.760Z,51.58
2023-04-10T17:42:48.306Z,51.72
2023-04-10T17:45:16.019Z,51.64
2023-04-10T17:47:43.621Z,52.32
2023-04-10T17:50:12.570Z,52.06
2023-04-10T17:52:40.085Z,52.80
2023-04-10T17:55:08.499Z,53.07
2023-04-10T17:57:36.007Z,53.09
2023-04-10T18:00:06.866Z,53.63
2023-04-10T18:02:34.507Z,53.53
2023-04-10T18:05:03.394Z,53.83
2023-04-10T18:07:32.254Z,54.16
2023-04-10T18:09:59.778Z,53.84
2023-04-10T18:12:27.347Z,54.20
2023-04-10T18:14:54.881Z,54.59
2023-04-10T18:17:22.463Z,54.53
2023-04-10T18:19:51.026Z,54.33
2023-04-10T18:22:18.639Z,55.14
2023-04-10T18:24:48.380Z,55.13
2023-04-10T18:27:16.153Z,55.04
2023-04-10T18:29:43.979Z,55.46
2023-04-10T18:32:11.600Z,55.34
2023-04-10T18:34:39.503Z,55.31
2023-04-10T18:37:09.009Z,55.70
2023-04-10T18:39:38.124Z,55.51
2023-04-10T18:42:10.608Z,55.45
2023-04-10T18:44:38.213Z,55.80
2023-04-10T18:47:06.011Z,55.93
2023-04-10T18:49:33.618Z,55.89
2023-04-10T18:52:01.492Z,55.74
2023-04-10T18:54:29.939Z,55.99
2023-04-10T18:56:57.570Z,56.39
2023-04-10T18:59:27.649Z,56.33
2023-04-10T19:01:55.442Z,56.74
2023-04-10T19:04:23.421Z,56.15
2023-04-10T19:06:51.316Z,56.56
2023-04-10T19:09:18.883Z,56.73
2023-04-10T19:11:46.525Z,56.62
2023-04-10T19:14:14.076Z,56.82
2023-04-10T19:16:42.991Z,56.63
2023-04-10T19:19:10.576Z,56.87
2023-04-10T19:21:38.136Z,56.94
2023-04-10T19:24:06.194Z,57.07
2023-04-10T19:26:33.804Z,56.51
2023-04-10T19:29:01.328Z,57.13
2023-04-10T19:31:29.499Z,57.13
2023-04-10T19:33:58.483Z,57.19
2023-04-10T19:36:27.083Z,57.05
2023-04-10T19:38:57.161Z,57.65
2023-04-10T19:41:25.974Z,57.49
2023-04-10T19:43:53.910Z,57.94
2023-04-10T19:46:22.791Z,57.54
2023-04-10T19:48:51.787Z,57.41
2023-04-10T19:51:20.708Z,57.38
2023-04-10T19:53:48.249Z,57.65
2023-04-10T19:56:17.360Z,57.82
2023-04-10T19:58:46.888Z,57.85
2023-04-10T20:01:14.627Z,58.11
2023-04-10T20:03:42.489Z,57.94
2023-04-10T20:06:10.750Z,58.03
2023-04-10T20:08:39.652Z,58.16
2023-04-10T20:11:07.406Z,57.68
2023-04-10T20:13:35.162Z,57.47
2023-04-10T20:16:03.026Z,57.70
2023-04-10T20:18:32.387Z,57.92
2023-04-10T20:21:00.031Z,57.28
2023-04-10T20:23:27.586Z,57.99
2023-04-10T20:25:56.583Z,57.26
2023-04-10T20:28:24.518Z,56.75
2023-04-10T20:30:52.085Z,57.78
2023-04-10T20:33:19.586Z,58.64
2023-04-10T20:35:47.135Z,57.40
2023-04-10T20:38:14.752Z,56.74
2023-04-10T20:40:42.281Z,56.80
2023-04-10T20:43:12.210Z,56.70
2023-04-10T20:45:40.638Z,56.99
2023-04-10T20:48:09.737Z,57.56
2023-04-10T20:50:37.906Z,57.09
2023-04-10T20:53:05.574Z,56.91
2023-04-10T20:55:33.128Z,56.68
2023-04-10T20:58:00.707Z,56.77
2023-04-10T21:00:30.816Z,56.87
2023-04-10T21:02:58.677Z,56.96
2023-04-10T21:05:26.402Z,56.80
2023-04-10T21:07:54.161Z,57.05
2023-04-10T21:10:21.916Z,56.97
2023-04-10T21:12:49.430Z,57.28
2023-04-10T21:15:17.035Z,57.09
2023-04-10T21:17:45.959Z,56.68
2023-04-10T21:20:13.738Z,57.24
2023-04-10T21:22:41.323Z,57.05
2023-04-10T21:25:09.968Z,57.41
2023-04-10T21:27:37.541Z,57.71
2023-04-10T21:30:05.834Z,58.20
2023-04-10T21:32:33.369Z,59.62
2023-04-10T21:35:02.383Z,59.75
2023-04-10T21:37:30.907Z,60.08
2023-04-10T21:39:58.603Z,59.94
2023-04-10T21:42:26.134Z,59.20
2023-04-10T21:44:54.520Z,60.02
2023-04-10T21:47:22.055Z,61.71
2023-04-10T21:49:49.617Z,62.81
2023-04-10T21:52:18.508Z,62.46
2023-04-10T21:54:46.060Z,63.81
2023-04-10T21:57:13.570Z,66.03
2023-04-10T21:59:41.102Z,66.92
2023-04-10T22:02:10.626Z,68.60
2023-04-10T22:04:44.572Z,68.41
2023-04-10T22:07:22.612Z,69.93
2023-04-10T22:09:50.190Z,72.35
2023-04-10T22:12:17.720Z,74.82
2023-04-10T22:14:45.304Z,73.77
2023-04-10T22:17:12.927Z,75.61
2023-04-10T22:19:40.435Z,78.58
2023-04-10T22:22:07.993Z,82.21
2023-04-10T22:24:37.106Z,82.42
2023-04-10T22:27:04.678Z,82.48
2023-04-10T22:29:32.543Z,84.21
2023-04-10T22:32:00.083Z,87.19
2023-04-10T22:34:27.737Z,87.70
2023-04-10T22:36:55.285Z,92.31
2023-04-10T22:39:23.059Z,95.30
2023-04-10T22:41:51.947Z,96.73
2023-04-10T22:44:19.644Z,100.00
2023-04-10T22:46:48.220Z,100.00
2023-04-10T22:49:17.036Z,100.00
2023-04-10T22:51:45.911Z,100.00
2023-04-10T22:54:13.621Z,100.00
2023-04-10T22:56:41.129Z,100.00
2023-04-10T22:59:10.372Z,100.00
2023-04-10T23:01:37.982Z,100.00
2023-04-10T23:04:05.565Z,100.00
2023-04-10T23:06:33.355Z,100.00
2023-04-10T23:09:00.866Z,100.00
2023-04-10T23:11:28.371Z,100.00
2023-04-10T23:13:55.893Z,100.00
2023-04-10T23:16:24.800Z,100.00
2023-04-10T23:18:52.533Z,100.00
2023-04-10T23:21:20.689Z,100.00
2023-04-10T23:23:48.280Z,100.00
2023-04-10T23:26:15.826Z,100.00
2023-04-10T23:28:43.440Z,100.00
2023-04-10T23:31:11.056Z,100.00
2023-04-10T23:33:39.928Z,100.00
2023-04-10T23:36:08.066Z,100.00
2023-04-10T23:38:35.594Z,100.00
2023-04-10T23:41:03.785Z,100.00
2023-04-10T23:43:31.324Z,100.00
2023-04-10T23:45:58.831Z,100.00
2023-04-10T23:48:26.390Z,100.00
2023-04-10T23:51:05.103Z,100.00
2023-04-10T23:53:32.862Z,100.00
2023-04-10T23:56:00.434Z,100.00
2023-04-10T23:58:28.001Z,100.00
